Peterson, Minnesota
Current Conditions -  °F | °C
As of 8:35 AM on Thursday 30 Oct 2014 (Local Time) from KFKA Reporting Station
Overcast Overcast  
Wind Chill: 31°   Ceiling: 8500
Heat Index: 36°   Visibility: 10mi
Dew Point: 33°   Wind: 6mph
Humidity: 89%   Direction: 170°S
Pressure: 30.06"   Gusts: NA
Location:  43.79°N, 91.83°W
Report Text: KFKA 301335Z AUTO 17005KT 10SM SCT070 OVC085 02/01 A3006 RMK AO2 T00210005
Loading
Personal Weather Stations






























Interactive Weather Map
Tropical Storm Tracking
New forecast layout! Learn more

10-Day Weather Forecast

Advertisements
Track Severe Weather on mobile